F/V Oceanie — FVBW — position and weather

sailwx.info

Track history (hours):
 
Tides and Currents Weather Stations Pressure Air Temp Water Temp Dewpoint Dewpoint Depression Visibility Wind Speed Wind Dir Waves Ship Positions

F/V Oceanie

Last reported at 2017-Apr-21 23:55 UTC. Time now 2017-Apr-24 19:16 UTC.
Position N 47°44' W 003°22'.

Length 16 m.

Type: Fishing. MMSI: 228370000.

Date/timePositionNaut miles runAvg speedWind from/ knotsBaromVisibWave heightAir tempDewpointWater temp
2017-Apr-21 23:55N 47°44' W 003°22'0 0.0
2017-Apr-21 23:30N 47°44' W 003°22'0 0.0
2017-Apr-21 23:00N 47°44' W 003°22'0 0.0
2017-Apr-21 22:30N 47°44' W 003°22'0 0.0
2017-Apr-21 22:00N 47°44' W 003°22'4 8.5
2017-Apr-21 21:30N 47°39' W 003°22'5 9.2
2017-Apr-21 21:00N 47°35' W 003°23'5 9.4
2017-Apr-21 20:30N 47°30' W 003°23'5 9.4
2017-Apr-21 20:00N 47°26' W 003°24'5 9.1
2017-Apr-21 19:30N 47°21' W 003°24'5 9.4
2017-Apr-21 19:00N 47°16' W 003°25'5 9.1
2017-Apr-21 18:30N 47°12' W 003°25'5 9.5
2017-Apr-21 18:00N 47°07' W 003°26'14 5.2
2017-Apr-21 15:15N 46°53' W 003°29'1 4.0
2017-Apr-21 15:00N 46°52' W 003°28'2 4.1
2017-Apr-21 14:30N 46°51' W 003°26'12 0.4
2017-Apr-20 06:03N 47°03' W 003°25'0 2.9
2017-Apr-20 06:00N 47°03' W 003°25'2 3.9
2017-Apr-20 05:30N 47°04' W 003°26'2 3.7
2017-Apr-20 05:00N 47°06' W 003°27'3 6.3
2017-Apr-20 04:30N 47°09' W 003°27'4 8.3
2017-Apr-20 04:00N 47°13' W 003°26'4 8.4
2017-Apr-20 03:30N 47°18' W 003°26'4 8.7
2017-Apr-20 03:00N 47°22' W 003°25'4 8.8
2017-Apr-20 02:30N 47°26' W 003°24'4 8.9
2017-Apr-20 02:00N 47°31' W 003°23'4 8.9
2017-Apr-20 01:30N 47°35' W 003°23'5 9.1
2017-Apr-20 01:00N 47°40' W 003°22'4 8.0
2017-Apr-20 00:30N 47°44' W 003°22'0 0.0
2017-Apr-20 00:00N 47°44' W 003°22'0 0.0
2017-Apr-19 23:30N 47°44' W 003°22'0 0.0
2017-Apr-19 23:00N 47°44' W 003°22'0 0.2
2017-Apr-19 22:30N 47°44' W 003°22'0 0.4
2017-Apr-19 22:00N 47°43' W 003°22'4 8.9
2017-Apr-19 21:30N 47°39' W 003°22'5 9.0
2017-Apr-19 21:00N 47°34' W 003°23'4 9.0
2017-Apr-19 20:30N 47°30' W 003°23'4 8.8
2017-Apr-19 20:00N 47°26' W 003°23'4 9.0
2017-Apr-19 19:30N 47°21' W 003°24'5 9.3
2017-Apr-19 19:00N 47°17' W 003°24'5 9.7
2017-Apr-19 18:30N 47°12' W 003°25'5 9.2
2017-Apr-19 18:00N 47°07' W 003°25'5 0.1
2017-Apr-18 05:56N 47°02' W 003°27'4 4.1
2017-Apr-18 05:02N 47°06' W 003°27'0 3.7
2017-Apr-18 04:59N 47°06' W 003°27'2 4.1
2017-Apr-18 04:29N 47°08' W 003°27'4 8.0
2017-Apr-18 03:56N 47°12' W 003°26'4 8.4
2017-Apr-18 03:30N 47°16' W 003°26'4 8.9
2017-Apr-18 03:00N 47°20' W 003°25'5 9.0
2017-Apr-18 02:30N 47°25' W 003°24'4 8.9
2017-Apr-18 02:00N 47°29' W 003°24'5 9.1
2017-Apr-18 01:30N 47°34' W 003°23'5 9.5
2017-Apr-18 01:00N 47°38' W 003°22'5 9.6
2017-Apr-18 00:30N 47°43' W 003°22'1 1.3
2017-Apr-18 00:00N 47°44' W 003°22'0 0.0
2017-Apr-17 23:30N 47°44' W 003°22'0 0.0
2017-Apr-17 23:00N 47°44' W 003°22'0 0.0
2017-Apr-17 22:30N 47°44' W 003°22'0 0.1
2017-Apr-17 22:00N 47°44' W 003°22'0 0.5
2017-Apr-17 21:30N 47°43' W 003°22'4 8.7
2017-Apr-17 21:00N 47°39' W 003°22'4 8.7
2017-Apr-17 20:30N 47°35' W 003°23'4 8.9
2017-Apr-17 20:00N 47°30' W 003°23'4 8.9
2017-Apr-17 19:30N 47°26' W 003°23'4 8.8
2017-Apr-17 19:00N 47°22' W 003°23'5 9.0
2017-Apr-17 18:30N 47°17' W 003°24'4 8.9
2017-Apr-17 18:00N 47°13' W 003°24'4 8.7
2017-Apr-17 17:30N 47°08' W 003°24'4 8.6
2017-Apr-17 16:59N 47°04' W 003°25'15 1.5
2017-Apr-17 06:44N 46°49' W 003°20'6 4.1
2017-Apr-17 05:19N 46°47' W 003°12'3 3.4
2017-Apr-17 04:33N 46°46' W 003°09'1 3.3
2017-Apr-17 04:17N 46°45' W 003°10'1 4.0
2017-Apr-17 03:59N 46°45' W 003°11'2 4.1
2017-Apr-17 03:29N 46°44' W 003°14'2 3.9
2017-Apr-17 03:00N 46°46' W 003°17'2 3.0
2017-Apr-17 02:29N 46°47' W 003°17'2 3.8
2017-Apr-17 01:55N 46°47' W 003°14'3 2.5
2017-Apr-17 00:33N 46°44' W 003°10'14 1.1
2017-Apr-16 11:44N 46°54' W 003°25'1 4.1
2017-Apr-16 11:25N 46°55' W 003°25'2 2.7
2017-Apr-16 10:44N 46°56' W 003°28'2 3.9
2017-Apr-16 10:18N 46°54' W 003°27'2 3.9
2017-Apr-16 09:47N 46°52' W 003°27'1 3.9
2017-Apr-16 09:29N 46°51' W 003°27'6 4.3
2017-Apr-16 08:02N 46°46' W 003°22'1 3.9
2017-Apr-16 07:49N 46°45' W 003°22'1 3.8
2017-Apr-16 07:30N 46°44' W 003°22'29 1.4
2017-Apr-15 10:17N 47°06' W 003°50'5 3.4
2017-Apr-15 08:54N 47°10' W 003°55'2 4.4
2017-Apr-15 08:23N 47°12' W 003°54'3 4.2
2017-Apr-15 07:47N 47°13' W 003°51'2 4.3
2017-Apr-15 07:19N 47°14' W 003°49'2 4.6
2017-Apr-15 06:52N 47°15' W 003°46'3 8.6
2017-Apr-15 06:30N 47°18' W 003°44'4 9.0
2017-Apr-15 06:00N 47°22' W 003°42'5 9.0
2017-Apr-15 05:30N 47°27' W 003°39'5 9.1
2017-Apr-15 05:00N 47°31' W 003°37'4 8.9
2017-Apr-15 04:30N 47°35' W 003°34'4 8.8
2017-Apr-15 04:00N 47°39' W 003°32'4 8.3
2017-Apr-15 03:30N 47°41' W 003°26'4 7.6
2017-Apr-15 03:00N 47°43' W 003°22'0 0.7
2017-Apr-15 02:30N 47°44' W 003°22'0 0.0
2017-Apr-15 02:00N 47°44' W 003°22'0 0.0
2017-Apr-15 01:30N 47°44' W 003°22'0 0.2
2017-Apr-15 01:00N 47°44' W 003°22'0 0.0
2017-Apr-15 00:30N 47°44' W 003°22'2 4.1
2017-Apr-15 00:00N 47°42' W 003°22'4 8.6
2017-Apr-14 23:30N 47°37' W 003°23'4 8.5
2017-Apr-14 23:00N 47°33' W 003°23'4 8.3
2017-Apr-14 22:30N 47°29' W 003°24'4 8.0
2017-Apr-14 21:59N 47°25' W 003°25'4 7.9
2017-Apr-14 21:30N 47°21' W 003°26'4 8.0
2017-Apr-14 21:00N 47°17' W 003°27'10 0.7
2017-Apr-14 05:56N 47°07' W 003°27'2 4.0
2017-Apr-14 05:30N 47°08' W 003°28'2 4.0
2017-Apr-14 05:00N 47°10' W 003°30'3 6.3
2017-Apr-14 04:30N 47°13' W 003°30'4 8.4
2017-Apr-14 04:00N 47°17' W 003°28'4 8.7
2017-Apr-14 03:30N 47°21' W 003°27'4 8.9
2017-Apr-14 03:00N 47°26' W 003°26'4 8.9
2017-Apr-14 02:30N 47°30' W 003°24'4 8.9
2017-Apr-14 02:00N 47°35' W 003°23'4 8.8
2017-Apr-14 01:30N 47°39' W 003°22'4 8.8
2017-Apr-14 01:00N 47°43' W 003°22'0 0.9
2017-Apr-14 00:30N 47°44' W 003°22'0 0.0
2017-Apr-14 00:00N 47°44' W 003°22'2 3.9
2017-Apr-13 23:30N 47°42' W 003°22'4 8.9
2017-Apr-13 23:00N 47°37' W 003°23'4 8.8
2017-Apr-13 22:30N 47°33' W 003°25'4 8.6
2017-Apr-13 22:00N 47°29' W 003°27'4 8.8
2017-Apr-13 21:30N 47°25' W 003°28'4 9.0
2017-Apr-13 21:00N 47°20' W 003°30'5 9.1
2017-Apr-13 20:30N 47°16' W 003°31'3 6.2
2017-Apr-13 19:58N 47°13' W 003°31'2 3.9
2017-Apr-13 19:27N 47°12' W 003°29'14 2.7
2017-Apr-13 14:18N 46°58' W 003°29'3 4.1
2017-Apr-13 13:28N 47°01' W 003°32'2 4.1
2017-Apr-13 12:59N 47°02' W 003°33'2 4.0
2017-Apr-13 12:29N 47°03' W 003°36'2 3.3
2017-Apr-13 11:52N 47°05' W 003°38'1 4.1
2017-Apr-13 11:30N 47°05' W 003°35'2 3.2
2017-Apr-13 10:57N 47°03' W 003°37'2 4.0
2017-Apr-13 10:26N 47°02' W 003°39'2 3.1
2017-Apr-13 09:53N 47°00' W 003°40'2 4.3
2017-Apr-13 09:30N 47°01' W 003°37'2 3.5
2017-Apr-13 08:54N 47°03' W 003°37'2 4.2
2017-Apr-13 08:30N 47°02' W 003°39'2 2.8
2017-Apr-13 07:53N 47°00' W 003°40'2 4.2
2017-Apr-13 07:30N 47°01' W 003°38'2 3.7
2017-Apr-13 06:59N 47°03' W 003°37'3 4.2
2017-Apr-13 06:22N 47°05' W 003°38'2 4.2
2017-Apr-13 06:00N 47°07' W 003°38'2 4.2
2017-Apr-13 05:30N 47°09' W 003°38'2 3.9
2017-Apr-13 05:00N 47°11' W 003°39'2 3.1
2017-Apr-13 04:30N 47°12' W 003°40'1 3.0
2017-Apr-13 04:00N 47°12' W 003°42'2 4.0
2017-Apr-13 03:26N 47°10' W 003°44'2 4.1
2017-Apr-13 03:00N 47°09' W 003°44'2 4.1
2017-Apr-13 02:30N 47°07' W 003°43'2 4.2
2017-Apr-13 02:00N 47°05' W 003°43'2 3.9
2017-Apr-13 01:29N 47°03' W 003°41'2 3.7
2017-Apr-13 01:00N 47°03' W 003°39'2 3.2
2017-Apr-13 00:30N 47°03' W 003°37'2 3.1
2017-Apr-12 23:58N 47°05' W 003°35'2 3.7
2017-Apr-12 23:30N 47°05' W 003°38'2 3.7
2017-Apr-12 23:00N 47°05' W 003°40'2 3.4
2017-Apr-12 22:29N 47°04' W 003°42'1 3.0
2017-Apr-12 22:00N 47°03' W 003°40'2 4.4
2017-Apr-12 21:28N 47°03' W 003°37'2 3.8
2017-Apr-12 20:59N 47°05' W 003°35'2 3.5
2017-Apr-12 20:30N 47°05' W 003°38'1 2.5
2017-Apr-12 20:00N 47°04' W 003°39'2 3.3
2017-Apr-12 19:28N 47°03' W 003°40'2 3.5
2017-Apr-12 18:59N 47°01' W 003°40'1 2.6
2017-Apr-12 18:30N 47°01' W 003°38'2 3.9
2017-Apr-12 17:59N 47°02' W 003°36'2 4.4
2017-Apr-12 17:30N 47°04' W 003°37'2 3.7
2017-Apr-12 17:00N 47°06' W 003°36'2 2.9
2017-Apr-12 16:29N 47°06' W 003°33'1 2.8
2017-Apr-12 15:59N 47°07' W 003°33'2 4.1
2017-Apr-12 15:30N 47°08' W 003°35'2 3.7
2017-Apr-12 15:00N 47°06' W 003°35'3 3.9
2017-Apr-12 14:22N 47°04' W 003°34'3 3.4
2017-Apr-12 13:27N 47°01' W 003°32'2 4.1
2017-Apr-12 13:00N 46°60' W 003°30'2 3.7
2017-Apr-12 12:29N 46°59' W 003°28'2 3.2
2017-Apr-12 12:00N 47°00' W 003°26'2 3.7
2017-Apr-12 11:30N 47°01' W 003°29'2 3.7
2017-Apr-12 10:56N 47°01' W 003°32'1 3.4
2017-Apr-12 10:30N 46°60' W 003°31'2 3.7
2017-Apr-12 09:56N 46°59' W 003°34'2 3.9
2017-Apr-12 09:29N 47°01' W 003°34'2 3.2
2017-Apr-12 09:00N 47°02' W 003°32'2 4.1
2017-Apr-12 08:30N 46°60' W 003°31'2 3.3
2017-Apr-12 08:00N 46°60' W 003°33'2 3.4
2017-Apr-12 07:29N 47°01' W 003°34'2 4.2
2017-Apr-12 07:00N 47°03' W 003°33'2 4.3
2017-Apr-12 06:29N 47°06' W 003°33'2 4.2
2017-Apr-12 06:00N 47°08' W 003°33'2 4.2
2017-Apr-12 05:30N 47°10' W 003°33'2 4.1
2017-Apr-12 05:00N 47°12' W 003°35'2 3.3
2017-Apr-12 04:29N 47°13' W 003°34'2 3.6
2017-Apr-12 04:00N 47°15' W 003°34'4 7.0
2017-Apr-12 03:30N 47°18' W 003°32'4 9.1
2017-Apr-12 03:00N 47°23' W 003°30'5 9.2
2017-Apr-12 02:30N 47°27' W 003°28'4 8.8
2017-Apr-12 02:00N 47°31' W 003°26'4 8.7
2017-Apr-12 01:31N 47°35' W 003°24'4 8.8
2017-Apr-12 01:01N 47°40' W 003°23'4 8.3
2017-Apr-12 00:31N 47°44' W 003°22'0 0.0
2017-Apr-12 00:01N 47°44' W 003°22'  
Track history (hours):
 
Tides and Currents Weather Stations Pressure Air Temp Water Temp Dewpoint Dewpoint Depression Visibility Wind Speed Wind Dir Waves Ship Positions

F/V Oceanie

Last reported at 2017-Apr-21 23:55 UTC. Time now 2017-Apr-24 19:16 UTC.
Position N 47°44' W 003°22'.

Length 16 m.

Type: Fishing. MMSI: 228370000.

Date/timePositionNaut miles runAvg speedWind from/ knotsBaromVisibWave heightAir tempDewpointWater temp
2017-Apr-21 23:55N 47°44' W 003°22'0 0.0
2017-Apr-21 23:30N 47°44' W 003°22'0 0.0
2017-Apr-21 23:00N 47°44' W 003°22'0 0.0
2017-Apr-21 22:30N 47°44' W 003°22'0 0.0
2017-Apr-21 22:00N 47°44' W 003°22'4 8.5
2017-Apr-21 21:30N 47°39' W 003°22'5 9.2
2017-Apr-21 21:00N 47°35' W 003°23'5 9.4
2017-Apr-21 20:30N 47°30' W 003°23'5 9.4
2017-Apr-21 20:00N 47°26' W 003°24'5 9.1
2017-Apr-21 19:30N 47°21' W 003°24'5 9.4
2017-Apr-21 19:00N 47°16' W 003°25'5 9.1
2017-Apr-21 18:30N 47°12' W 003°25'5 9.5
2017-Apr-21 18:00N 47°07' W 003°26'14 5.2
2017-Apr-21 15:15N 46°53' W 003°29'1 4.0
2017-Apr-21 15:00N 46°52' W 003°28'2 4.1
2017-Apr-21 14:30N 46°51' W 003°26'12 0.4
2017-Apr-20 06:03N 47°03' W 003°25'0 2.9
2017-Apr-20 06:00N 47°03' W 003°25'2 3.9
2017-Apr-20 05:30N 47°04' W 003°26'2 3.7
2017-Apr-20 05:00N 47°06' W 003°27'3 6.3
2017-Apr-20 04:30N 47°09' W 003°27'4 8.3
2017-Apr-20 04:00N 47°13' W 003°26'4 8.4
2017-Apr-20 03:30N 47°18' W 003°26'4 8.7
2017-Apr-20 03:00N 47°22' W 003°25'4 8.8
2017-Apr-20 02:30N 47°26' W 003°24'4 8.9
2017-Apr-20 02:00N 47°31' W 003°23'4 8.9
2017-Apr-20 01:30N 47°35' W 003°23'5 9.1
2017-Apr-20 01:00N 47°40' W 003°22'4 8.0
2017-Apr-20 00:30N 47°44' W 003°22'0 0.0
2017-Apr-20 00:00N 47°44' W 003°22'0 0.0
2017-Apr-19 23:30N 47°44' W 003°22'0 0.0
2017-Apr-19 23:00N 47°44' W 003°22'0 0.2
2017-Apr-19 22:30N 47°44' W 003°22'0 0.4
2017-Apr-19 22:00N 47°43' W 003°22'4 8.9
2017-Apr-19 21:30N 47°39' W 003°22'5 9.0
2017-Apr-19 21:00N 47°34' W 003°23'4 9.0
2017-Apr-19 20:30N 47°30' W 003°23'4 8.8
2017-Apr-19 20:00N 47°26' W 003°23'4 9.0
2017-Apr-19 19:30N 47°21' W 003°24'5 9.3
2017-Apr-19 19:00N 47°17' W 003°24'5 9.7
2017-Apr-19 18:30N 47°12' W 003°25'5 9.2
2017-Apr-19 18:00N 47°07' W 003°25'5 0.1
2017-Apr-18 05:56N 47°02' W 003°27'4 4.1
2017-Apr-18 05:02N 47°06' W 003°27'0 3.7
2017-Apr-18 04:59N 47°06' W 003°27'2 4.1
2017-Apr-18 04:29N 47°08' W 003°27'4 8.0
2017-Apr-18 03:56N 47°12' W 003°26'4 8.4
2017-Apr-18 03:30N 47°16' W 003°26'4 8.9
2017-Apr-18 03:00N 47°20' W 003°25'5 9.0
2017-Apr-18 02:30N 47°25' W 003°24'4 8.9
2017-Apr-18 02:00N 47°29' W 003°24'5 9.1
2017-Apr-18 01:30N 47°34' W 003°23'5 9.5
2017-Apr-18 01:00N 47°38' W 003°22'5 9.6
2017-Apr-18 00:30N 47°43' W 003°22'1 1.3
2017-Apr-18 00:00N 47°44' W 003°22'0 0.0
2017-Apr-17 23:30N 47°44' W 003°22'0 0.0
2017-Apr-17 23:00N 47°44' W 003°22'0 0.0
2017-Apr-17 22:30N 47°44' W 003°22'0 0.1
2017-Apr-17 22:00N 47°44' W 003°22'0 0.5
2017-Apr-17 21:30N 47°43' W 003°22'4 8.7
2017-Apr-17 21:00N 47°39' W 003°22'4 8.7
2017-Apr-17 20:30N 47°35' W 003°23'4 8.9
2017-Apr-17 20:00N 47°30' W 003°23'4 8.9
2017-Apr-17 19:30N 47°26' W 003°23'4 8.8
2017-Apr-17 19:00N 47°22' W 003°23'5 9.0
2017-Apr-17 18:30N 47°17' W 003°24'4 8.9
2017-Apr-17 18:00N 47°13' W 003°24'4 8.7
2017-Apr-17 17:30N 47°08' W 003°24'4 8.6
2017-Apr-17 16:59N 47°04' W 003°25'15 1.5
2017-Apr-17 06:44N 46°49' W 003°20'6 4.1
2017-Apr-17 05:19N 46°47' W 003°12'3 3.4
2017-Apr-17 04:33N 46°46' W 003°09'1 3.3
2017-Apr-17 04:17N 46°45' W 003°10'1 4.0
2017-Apr-17 03:59N 46°45' W 003°11'2 4.1
2017-Apr-17 03:29N 46°44' W 003°14'2 3.9
2017-Apr-17 03:00N 46°46' W 003°17'2 3.0
2017-Apr-17 02:29N 46°47' W 003°17'2 3.8
2017-Apr-17 01:55N 46°47' W 003°14'3 2.5
2017-Apr-17 00:33N 46°44' W 003°10'14 1.1
2017-Apr-16 11:44N 46°54' W 003°25'1 4.1
2017-Apr-16 11:25N 46°55' W 003°25'2 2.7
2017-Apr-16 10:44N 46°56' W 003°28'2 3.9
2017-Apr-16 10:18N 46°54' W 003°27'2 3.9
2017-Apr-16 09:47N 46°52' W 003°27'1 3.9
2017-Apr-16 09:29N 46°51' W 003°27'6 4.3
2017-Apr-16 08:02N 46°46' W 003°22'1 3.9
2017-Apr-16 07:49N 46°45' W 003°22'1 3.8
2017-Apr-16 07:30N 46°44' W 003°22'29 1.4
2017-Apr-15 10:17N 47°06' W 003°50'5 3.4
2017-Apr-15 08:54N 47°10' W 003°55'2 4.4
2017-Apr-15 08:23N 47°12' W 003°54'3 4.2
2017-Apr-15 07:47N 47°13' W 003°51'2 4.3
2017-Apr-15 07:19N 47°14' W 003°49'2 4.6
2017-Apr-15 06:52N 47°15' W 003°46'3 8.6
2017-Apr-15 06:30N 47°18' W 003°44'4 9.0
2017-Apr-15 06:00N 47°22' W 003°42'5 9.0
2017-Apr-15 05:30N 47°27' W 003°39'5 9.1
2017-Apr-15 05:00N 47°31' W 003°37'4 8.9
2017-Apr-15 04:30N 47°35' W 003°34'4 8.8
2017-Apr-15 04:00N 47°39' W 003°32'4 8.3
2017-Apr-15 03:30N 47°41' W 003°26'4 7.6
2017-Apr-15 03:00N 47°43' W 003°22'0 0.7
2017-Apr-15 02:30N 47°44' W 003°22'0 0.0
2017-Apr-15 02:00N 47°44' W 003°22'0 0.0
2017-Apr-15 01:30N 47°44' W 003°22'0 0.2
2017-Apr-15 01:00N 47°44' W 003°22'0 0.0
2017-Apr-15 00:30N 47°44' W 003°22'2 4.1
2017-Apr-15 00:00N 47°42' W 003°22'4 8.6
2017-Apr-14 23:30N 47°37' W 003°23'4 8.5
2017-Apr-14 23:00N 47°33' W 003°23'4 8.3
2017-Apr-14 22:30N 47°29' W 003°24'4 8.0
2017-Apr-14 21:59N 47°25' W 003°25'4 7.9
2017-Apr-14 21:30N 47°21' W 003°26'4 8.0
2017-Apr-14 21:00N 47°17' W 003°27'10 0.7
2017-Apr-14 05:56N 47°07' W 003°27'2 4.0
2017-Apr-14 05:30N 47°08' W 003°28'2 4.0
2017-Apr-14 05:00N 47°10' W 003°30'3 6.3
2017-Apr-14 04:30N 47°13' W 003°30'4 8.4
2017-Apr-14 04:00N 47°17' W 003°28'4 8.7
2017-Apr-14 03:30N 47°21' W 003°27'4 8.9
2017-Apr-14 03:00N 47°26' W 003°26'4 8.9
2017-Apr-14 02:30N 47°30' W 003°24'4 8.9
2017-Apr-14 02:00N 47°35' W 003°23'4 8.8
2017-Apr-14 01:30N 47°39' W 003°22'4 8.8
2017-Apr-14 01:00N 47°43' W 003°22'0 0.9
2017-Apr-14 00:30N 47°44' W 003°22'0 0.0
2017-Apr-14 00:00N 47°44' W 003°22'2 3.9
2017-Apr-13 23:30N 47°42' W 003°22'4 8.9
2017-Apr-13 23:00N 47°37' W 003°23'4 8.8
2017-Apr-13 22:30N 47°33' W 003°25'4 8.6
2017-Apr-13 22:00N 47°29' W 003°27'4 8.8
2017-Apr-13 21:30N 47°25' W 003°28'4 9.0
2017-Apr-13 21:00N 47°20' W 003°30'5 9.1
2017-Apr-13 20:30N 47°16' W 003°31'3 6.2
2017-Apr-13 19:58N 47°13' W 003°31'2 3.9
2017-Apr-13 19:27N 47°12' W 003°29'14 2.7
2017-Apr-13 14:18N 46°58' W 003°29'3 4.1
2017-Apr-13 13:28N 47°01' W 003°32'2 4.1
2017-Apr-13 12:59N 47°02' W 003°33'2 4.0
2017-Apr-13 12:29N 47°03' W 003°36'2 3.3
2017-Apr-13 11:52N 47°05' W 003°38'1 4.1
2017-Apr-13 11:30N 47°05' W 003°35'2 3.2
2017-Apr-13 10:57N 47°03' W 003°37'2 4.0
2017-Apr-13 10:26N 47°02' W 003°39'2 3.1
2017-Apr-13 09:53N 47°00' W 003°40'2 4.3
2017-Apr-13 09:30N 47°01' W 003°37'2 3.5
2017-Apr-13 08:54N 47°03' W 003°37'2 4.2
2017-Apr-13 08:30N 47°02' W 003°39'2 2.8
2017-Apr-13 07:53N 47°00' W 003°40'2 4.2
2017-Apr-13 07:30N 47°01' W 003°38'2 3.7
2017-Apr-13 06:59N 47°03' W 003°37'3 4.2
2017-Apr-13 06:22N 47°05' W 003°38'2 4.2
2017-Apr-13 06:00N 47°07' W 003°38'2 4.2
2017-Apr-13 05:30N 47°09' W 003°38'2 3.9
2017-Apr-13 05:00N 47°11' W 003°39'2 3.1
2017-Apr-13 04:30N 47°12' W 003°40'1 3.0
2017-Apr-13 04:00N 47°12' W 003°42'2 4.0
2017-Apr-13 03:26N 47°10' W 003°44'2 4.1
2017-Apr-13 03:00N 47°09' W 003°44'2 4.1
2017-Apr-13 02:30N 47°07' W 003°43'2 4.2
2017-Apr-13 02:00N 47°05' W 003°43'2 3.9
2017-Apr-13 01:29N 47°03' W 003°41'2 3.7
2017-Apr-13 01:00N 47°03' W 003°39'2 3.2
2017-Apr-13 00:30N 47°03' W 003°37'2 3.1
2017-Apr-12 23:58N 47°05' W 003°35'2 3.7
2017-Apr-12 23:30N 47°05' W 003°38'2 3.7
2017-Apr-12 23:00N 47°05' W 003°40'2 3.4
2017-Apr-12 22:29N 47°04' W 003°42'1 3.0
2017-Apr-12 22:00N 47°03' W 003°40'2 4.4
2017-Apr-12 21:28N 47°03' W 003°37'2 3.8
2017-Apr-12 20:59N 47°05' W 003°35'2 3.5
2017-Apr-12 20:30N 47°05' W 003°38'1 2.5
2017-Apr-12 20:00N 47°04' W 003°39'2 3.3
2017-Apr-12 19:28N 47°03' W 003°40'2 3.5
2017-Apr-12 18:59N 47°01' W 003°40'1 2.6
2017-Apr-12 18:30N 47°01' W 003°38'2 3.9
2017-Apr-12 17:59N 47°02' W 003°36'2 4.4
2017-Apr-12 17:30N 47°04' W 003°37'2 3.7
2017-Apr-12 17:00N 47°06' W 003°36'2 2.9
2017-Apr-12 16:29N 47°06' W 003°33'1 2.8
2017-Apr-12 15:59N 47°07' W 003°33'2 4.1
2017-Apr-12 15:30N 47°08' W 003°35'2 3.7
2017-Apr-12 15:00N 47°06' W 003°35'3 3.9
2017-Apr-12 14:22N 47°04' W 003°34'3 3.4
2017-Apr-12 13:27N 47°01' W 003°32'2 4.1
2017-Apr-12 13:00N 46°60' W 003°30'2 3.7
2017-Apr-12 12:29N 46°59' W 003°28'2 3.2
2017-Apr-12 12:00N 47°00' W 003°26'2 3.7
2017-Apr-12 11:30N 47°01' W 003°29'2 3.7
2017-Apr-12 10:56N 47°01' W 003°32'1 3.4
2017-Apr-12 10:30N 46°60' W 003°31'2 3.7
2017-Apr-12 09:56N 46°59' W 003°34'2 3.9
2017-Apr-12 09:29N 47°01' W 003°34'2 3.2
2017-Apr-12 09:00N 47°02' W 003°32'2 4.1
2017-Apr-12 08:30N 46°60' W 003°31'2 3.3
2017-Apr-12 08:00N 46°60' W 003°33'2 3.4
2017-Apr-12 07:29N 47°01' W 003°34'2 4.2
2017-Apr-12 07:00N 47°03' W 003°33'2 4.3
2017-Apr-12 06:29N 47°06' W 003°33'2 4.2
2017-Apr-12 06:00N 47°08' W 003°33'2 4.2
2017-Apr-12 05:30N 47°10' W 003°33'2 4.1
2017-Apr-12 05:00N 47°12' W 003°35'2 3.3
2017-Apr-12 04:29N 47°13' W 003°34'2 3.6
2017-Apr-12 04:00N 47°15' W 003°34'4 7.0
2017-Apr-12 03:30N 47°18' W 003°32'4 9.1
2017-Apr-12 03:00N 47°23' W 003°30'5 9.2
2017-Apr-12 02:30N 47°27' W 003°28'4 8.8
2017-Apr-12 02:00N 47°31' W 003°26'4 8.7
2017-Apr-12 01:31N 47°35' W 003°24'4 8.8
2017-Apr-12 01:01N 47°40' W 003°23'4 8.3
2017-Apr-12 00:31N 47°44' W 003°22'0 0.0
2017-Apr-12 00:01N 47°44' W 003°22'  

Dump ship's entire track history